UAE33T OMDB-EGPF
Flight info
| Callsign | UAE33T |
|---|---|
| Flight time | N/A |
| Altitude | 38000 |
| Route | ANVIX R401 GIDIS G783 VAVIM DCT PEKEM DCT MEDPO DCT ITRUX Y511 PMA/N0487F400 Z712 WEJ L677 CVO DCT OTHON UN128 RDS UL609 MES UG18 FSK UN128 RUGAS DCT RAMAP DCT VIBOP DCT NIDLO DCT SUBEN DCT ANELA L604 RELBI L602 RKN L980 TENLI L602 EMLON M79 TENDO DCT AGPED |
| Aircraft | A359/H-SDE2E3GHIJ3J4J5LM1ORWXY/LB1D1 |
Departure
| Time | 2026-05-05 07:10 |
|---|---|
| Airport | Dubai International Airport (OMDB) |
Arrival
| Time | N/A |
|---|---|
| Airport | Glasgow Airport (EGPF) |
| Time | Latitude | Longitude | Altitude | Speed | Heading |
|---|---|---|---|---|---|
| 2026-05-05 06:39 | 25.24707 | 55.36231 | 27 ft | 0 kts | 31° |
| 2026-05-05 06:56 | 25.24703 | 55.36228 | 26 ft | 4 kts | 31° |
| 2026-05-05 06:56 | 25.24680 | 55.36213 | 26 ft | 4 kts | 31° |
| 2026-05-05 06:56 | 25.24661 | 55.36200 | 25 ft | 3 kts | 32° |
| 2026-05-05 06:56 | 25.24643 | 55.36181 | 26 ft | 4 kts | 76° |
| 2026-05-05 06:57 | 25.24645 | 55.36155 | 25 ft | 4 kts | 121° |
| 2026-05-05 06:57 | 25.24659 | 55.36131 | 25 ft | 4 kts | 122° |
| 2026-05-05 06:57 | 25.24669 | 55.36113 | 27 ft | 0 kts | 122° |
| 2026-05-05 07:01 | 25.24668 | 55.36115 | 27 ft | 3 kts | 121° |
| 2026-05-05 07:01 | 25.24641 | 55.36165 | 27 ft | 9 kts | 121° |
| 2026-05-05 07:01 | 25.24604 | 55.36230 | 27 ft | 12 kts | 122° |
| 2026-05-05 07:02 | 25.24551 | 55.36322 | 27 ft | 15 kts | 122° |
| 2026-05-05 07:02 | 25.24495 | 55.36424 | 27 ft | 16 kts | 122° |
| 2026-05-05 07:02 | 25.24450 | 55.36535 | 27 ft | 15 kts | 98° |
| 2026-05-05 07:02 | 25.24477 | 55.36644 | 27 ft | 16 kts | 54° |
| 2026-05-05 07:03 | 25.24565 | 55.36718 | 27 ft | 16 kts | 31° |
| 2026-05-05 07:03 | 25.24666 | 55.36786 | 27 ft | 17 kts | 31° |
| 2026-05-05 07:03 | 25.24767 | 55.36853 | 28 ft | 15 kts | 31° |
| 2026-05-05 07:03 | 25.24805 | 55.36925 | 28 ft | 11 kts | 100° |
| 2026-05-05 07:04 | 25.24763 | 55.37014 | 28 ft | 16 kts | 122° |
| 2026-05-05 07:04 | 25.24702 | 55.37123 | 28 ft | 17 kts | 122° |
| 2026-05-05 07:04 | 25.24634 | 55.37243 | 28 ft | 21 kts | 122° |
| 2026-05-05 07:04 | 25.24552 | 55.37389 | 28 ft | 23 kts | 122° |
| 2026-05-05 07:05 | 25.24469 | 55.37537 | 27 ft | 21 kts | 122° |
| 2026-05-05 07:05 | 25.24389 | 55.37679 | 27 ft | 22 kts | 122° |
| 2026-05-05 07:05 | 25.24307 | 55.37824 | 28 ft | 23 kts | 122° |
| 2026-05-05 07:05 | 25.24223 | 55.37975 | 28 ft | 23 kts | 122° |
| 2026-05-05 07:06 | 25.24136 | 55.38127 | 28 ft | 24 kts | 122° |
| 2026-05-05 07:06 | 25.24048 | 55.38285 | 28 ft | 24 kts | 122° |
| 2026-05-05 07:06 | 25.23957 | 55.38446 | 28 ft | 25 kts | 122° |
| 2026-05-05 07:06 | 25.23864 | 55.38611 | 28 ft | 26 kts | 122° |
| 2026-05-05 07:07 | 25.23781 | 55.38759 | 28 ft | 22 kts | 122° |
| 2026-05-05 07:07 | 25.23700 | 55.38902 | 28 ft | 22 kts | 121° |
| 2026-05-05 07:07 | 25.23617 | 55.39050 | 28 ft | 23 kts | 121° |
| 2026-05-05 07:07 | 25.23537 | 55.39194 | 28 ft | 17 kts | 122° |
| 2026-05-05 07:08 | 25.23491 | 55.39276 | 28 ft | 12 kts | 116° |
| 2026-05-05 07:08 | 25.23516 | 55.39354 | 30 ft | 11 kts | 41° |
| 2026-05-05 07:08 | 25.23572 | 55.39394 | 33 ft | 8 kts | 30° |
| 2026-05-05 07:08 | 25.23621 | 55.39401 | 33 ft | 7 kts | 344° |
| 2026-05-05 07:09 | 25.23660 | 55.39359 | 33 ft | 9 kts | 301° |
| 2026-05-05 07:09 | 25.23665 | 55.39351 | 33 ft | 0 kts | 301° |
| 2026-05-05 07:09 | 25.23754 | 55.39190 | 33 ft | 57 kts | 301° |
| 2026-05-05 07:09 | 25.24073 | 55.38615 | 30 ft | 116 kts | 302° |
| 2026-05-05 07:10 | 25.24588 | 55.37688 | 30 ft | 166 kts | 302° |
| 2026-05-05 07:10 | 25.25210 | 55.36560 | 532 ft | 169 kts | 300° |
| 2026-05-05 07:10 | 25.25824 | 55.35450 | 1070 ft | 174 kts | 302° |
| 2026-05-05 07:10 | 25.26505 | 55.34268 | 1290 ft | 192 kts | 303° |
| 2026-05-05 07:11 | 25.27257 | 55.33013 | 1598 ft | 204 kts | 304° |
| 2026-05-05 07:11 | 25.28093 | 55.31677 | 1859 ft | 221 kts | 306° |
| 2026-05-05 07:11 | 25.28926 | 55.30171 | 2146 ft | 238 kts | 291° |
| 2026-05-05 07:11 | 25.29037 | 55.28354 | 2596 ft | 242 kts | 253° |
| 2026-05-05 07:12 | 25.28420 | 55.26622 | 3165 ft | 244 kts | 243° |
| 2026-05-05 07:12 | 25.27679 | 55.24926 | 3724 ft | 247 kts | 243° |
| 2026-05-05 07:12 | 25.26927 | 55.23212 | 4323 ft | 249 kts | 244° |
| 2026-05-05 07:12 | 25.26179 | 55.21484 | 4916 ft | 250 kts | 245° |
| 2026-05-05 07:13 | 25.25437 | 55.19747 | 5500 ft | 251 kts | 245° |
| 2026-05-05 07:13 | 25.24587 | 55.18081 | 6016 ft | 254 kts | 231° |
| 2026-05-05 07:13 | 25.23184 | 55.16927 | 6508 ft | 257 kts | 199° |
| 2026-05-05 07:13 | 25.21404 | 55.16690 | 6914 ft | 261 kts | 176° |
| 2026-05-05 07:14 | 25.19610 | 55.17033 | 7389 ft | 265 kts | 158° |
| 2026-05-05 07:14 | 25.18073 | 55.18161 | 7783 ft | 271 kts | 130° |
| 2026-05-05 07:14 | 25.17029 | 55.19933 | 8125 ft | 281 kts | 116° |
| 2026-05-05 07:14 | 25.16129 | 55.21875 | 8653 ft | 286 kts | 115° |
| 2026-05-05 07:15 | 25.15219 | 55.23841 | 9266 ft | 289 kts | 115° |
| 2026-05-05 07:15 | 25.14302 | 55.25793 | 9903 ft | 291 kts | 116° |
| 2026-05-05 07:15 | 25.13356 | 55.27784 | 10480 ft | 294 kts | 116° |
| 2026-05-05 07:15 | 25.12396 | 55.29794 | 11041 ft | 298 kts | 117° |
| 2026-05-05 07:16 | 25.11419 | 55.31832 | 11564 ft | 304 kts | 117° |
| 2026-05-05 07:16 | 25.10423 | 55.33913 | 12116 ft | 309 kts | 116° |
| 2026-05-05 07:16 | 25.09504 | 55.36076 | 12674 ft | 314 kts | 113° |
| 2026-05-05 07:16 | 25.08618 | 55.38289 | 13248 ft | 318 kts | 114° |
| 2026-05-05 07:17 | 25.07713 | 55.40534 | 13777 ft | 322 kts | 114° |
| 2026-05-05 07:17 | 25.06798 | 55.42806 | 14293 ft | 327 kts | 113° |
| 2026-05-05 07:17 | 25.05905 | 55.45135 | 14560 ft | 341 kts | 113° |
| 2026-05-05 07:17 | 25.04973 | 55.47590 | 14793 ft | 354 kts | 113° |
| 2026-05-05 07:18 | 25.03999 | 55.50142 | 15027 ft | 367 kts | 113° |
| 2026-05-05 07:18 | 25.02987 | 55.52780 | 15268 ft | 379 kts | 113° |
| 2026-05-05 07:18 | 25.01890 | 55.55470 | 15479 ft | 390 kts | 118° |
| 2026-05-05 07:18 | 25.00543 | 55.58106 | 15686 ft | 400 kts | 121° |
| 2026-05-05 07:19 | 24.99100 | 55.60771 | 15896 ft | 410 kts | 121° |
| 2026-05-05 07:19 | 24.97621 | 55.63493 | 16178 ft | 417 kts | 121° |
| 2026-05-05 07:19 | 24.96126 | 55.66248 | 16562 ft | 420 kts | 121° |
| 2026-05-05 07:19 | 24.94615 | 55.69021 | 16958 ft | 424 kts | 122° |
| 2026-05-05 07:20 | 24.92981 | 55.71673 | 17364 ft | 426 kts | 126° |
| 2026-05-05 07:20 | 24.91231 | 55.74324 | 17787 ft | 429 kts | 127° |
| 2026-05-05 07:20 | 24.89466 | 55.76976 | 18195 ft | 431 kts | 127° |